sensor_id;sensor_type;location;lat;lon;timestamp;pressure;altitude;pressure_sealevel;temperature;humidity
54918;BME280;40818;50.562;7.454;2023-06-04T00:00:38;98023.22;;;11.89;52.14
54918;BME280;40818;50.562;7.454;2023-06-04T00:10:44;98022.19;;;11.79;53.20
54918;BME280;40818;50.562;7.454;2023-06-04T00:20:48;98015.38;;;11.64;53.72
54918;BME280;40818;50.562;7.454;2023-06-04T00:30:54;98016.06;;;11.53;54.28
54918;BME280;40818;50.562;7.454;2023-06-04T00:40:57;98011.91;;;11.23;55.69
54918;BME280;40818;50.562;7.454;2023-06-04T00:51:03;98008.53;;;10.93;57.43
54918;BME280;40818;50.562;7.454;2023-06-04T01:01:10;98014.69;;;10.78;57.94
54918;BME280;40818;50.562;7.454;2023-06-04T01:11:18;98016.19;;;10.68;58.54
54918;BME280;40818;50.562;7.454;2023-06-04T01:21:21;98016.66;;;10.60;58.67
54918;BME280;40818;50.562;7.454;2023-06-04T01:31:31;98011.94;;;10.52;59.25
54918;BME280;40818;50.562;7.454;2023-06-04T01:41:34;98016.88;;;10.43;60.38
54918;BME280;40818;50.562;7.454;2023-06-04T01:51:40;98005.22;;;10.19;61.14
54918;BME280;40818;50.562;7.454;2023-06-04T02:01:44;98014.44;;;9.95;63.08
54918;BME280;40818;50.562;7.454;2023-06-04T02:11:50;98009.88;;;9.84;63.46
54918;BME280;40818;50.562;7.454;2023-06-04T02:21:53;98010.25;;;9.78;64.20
54918;BME280;40818;50.562;7.454;2023-06-04T02:31:59;98010.84;;;9.67;64.49
54918;BME280;40818;50.562;7.454;2023-06-04T02:42:03;98007.63;;;9.63;64.31
54918;BME280;40818;50.562;7.454;2023-06-04T02:52:09;98009.31;;;9.48;65.67
54918;BME280;40818;50.562;7.454;2023-06-04T03:02:13;98012.81;;;9.47;65.09
54918;BME280;40818;50.562;7.454;2023-06-04T03:12:19;98021.09;;;9.38;66.40
54918;BME280;40818;50.562;7.454;2023-06-04T03:22:23;98029.69;;;9.54;63.96
54918;BME280;40818;50.562;7.454;2023-06-04T03:32:29;98024.72;;;9.66;61.62
54918;BME280;40818;50.562;7.454;2023-06-04T03:42:33;98017.28;;;9.45;64.75
54918;BME280;40818;50.562;7.454;2023-06-04T03:52:40;98020.41;;;9.50;63.01
54918;BME280;40818;50.562;7.454;2023-06-04T04:02:44;98019.59;;;9.50;65.97
54918;BME280;40818;50.562;7.454;2023-06-04T04:12:57;98013.59;;;9.49;68.39
54918;BME280;40818;50.562;7.454;2023-06-04T04:23:04;98021.09;;;9.84;66.28
54918;BME280;40818;50.562;7.454;2023-06-04T04:33:12;98020.25;;;10.29;64.63
54918;BME280;40818;50.562;7.454;2023-06-04T04:43:28;98018.25;;;10.48;64.39
54918;BME280;40818;50.562;7.454;2023-06-04T04:53:36;98018.69;;;10.69;67.34
54918;BME280;40818;50.562;7.454;2023-06-04T05:03:40;98023.16;;;11.23;64.67
54918;BME280;40818;50.562;7.454;2023-06-04T05:13:48;98021.56;;;11.88;61.86
54918;BME280;40818;50.562;7.454;2023-06-04T05:23:52;98037.13;;;12.03;59.80
54918;BME280;40818;50.562;7.454;2023-06-04T05:34:01;98039.44;;;12.59;61.02
54918;BME280;40818;50.562;7.454;2023-06-04T05:44:07;98043.78;;;13.21;57.65
54918;BME280;40818;50.562;7.454;2023-06-04T05:54:13;98053.47;;;14.16;56.59
54918;BME280;40818;50.562;7.454;2023-06-04T06:04:18;98064.41;;;15.46;53.38
54918;BME280;40818;50.562;7.454;2023-06-04T06:14:24;98059.50;;;16.17;49.40
54918;BME280;40818;50.562;7.454;2023-06-04T06:24:28;98078.34;;;17.15;49.24
54918;BME280;40818;50.562;7.454;2023-06-04T06:34:34;98091.84;;;17.71;43.29
54918;BME280;40818;50.562;7.454;2023-06-04T06:44:38;98093.53;;;18.31;43.45
54918;BME280;40818;50.562;7.454;2023-06-04T06:54:44;98086.34;;;20.62;39.52
54918;BME280;40818;50.562;7.454;2023-06-04T07:04:48;98092.25;;;20.11;39.12
54918;BME280;40818;50.562;7.454;2023-06-04T07:14:54;98090.88;;;21.04;40.03
54918;BME280;40818;50.562;7.454;2023-06-04T07:24:58;98098.06;;;22.12;38.23
54918;BME280;40818;50.562;7.454;2023-06-04T07:35:04;98106.38;;;22.42;34.43
54918;BME280;40818;50.562;7.454;2023-06-04T07:45:09;98097.41;;;24.48;35.31
54918;BME280;40818;50.562;7.454;2023-06-04T07:55:15;98103.50;;;25.02;34.16
54918;BME280;40818;50.562;7.454;2023-06-04T08:05:20;98103.44;;;24.57;34.21
54918;BME280;40818;50.562;7.454;2023-06-04T08:15:26;98099.59;;;24.07;32.54
54918;BME280;40818;50.562;7.454;2023-06-04T08:25:29;98114.13;;;24.49;32.28
54918;BME280;40818;50.562;7.454;2023-06-04T08:35:35;98109.09;;;23.69;33.06
54918;BME280;40818;50.562;7.454;2023-06-04T08:45:39;98123.19;;;23.62;35.32
54918;BME280;40818;50.562;7.454;2023-06-04T08:55:46;98110.44;;;23.97;34.53
54918;BME280;40818;50.562;7.454;2023-06-04T09:05:53;98115.75;;;23.97;33.32
54918;BME280;40818;50.562;7.454;2023-06-04T09:16:04;98111.72;;;24.62;33.67
54918;BME280;40818;50.562;7.454;2023-06-04T09:26:09;98108.28;;;24.15;31.60
54918;BME280;40818;50.562;7.454;2023-06-04T09:36:15;98105.53;;;23.85;29.29
54918;BME280;40818;50.562;7.454;2023-06-04T09:46:19;98121.22;;;22.10;31.81
54918;BME280;40818;50.562;7.454;2023-06-04T09:56:26;98115.53;;;22.88;30.63
54918;BME280;40818;50.562;7.454;2023-06-04T10:06:32;98111.50;;;24.11;28.89
54918;BME280;40818;50.562;7.454;2023-06-04T10:16:39;98115.09;;;23.63;29.28
54918;BME280;40818;50.562;7.454;2023-06-04T10:26:43;98106.81;;;25.04;28.16
54918;BME280;40818;50.562;7.454;2023-06-04T10:36:50;98111.72;;;24.77;27.87
54918;BME280;40818;50.562;7.454;2023-06-04T10:46:53;98100.53;;;26.43;26.57
54918;BME280;40818;50.562;7.454;2023-06-04T10:57:10;98102.94;;;25.21;27.57
54918;BME280;40818;50.562;7.454;2023-06-04T11:07:14;98101.94;;;25.08;28.08
54918;BME280;40818;50.562;7.454;2023-06-04T11:17:20;98096.56;;;24.86;28.39
54918;BME280;40818;50.562;7.454;2023-06-04T11:27:24;98087.78;;;26.95;25.04
54918;BME280;40818;50.562;7.454;2023-06-04T11:37:30;98083.63;;;28.43;25.71
54918;BME280;40818;50.562;7.454;2023-06-04T11:47:34;98096.38;;;24.87;27.14
54918;BME280;40818;50.562;7.454;2023-06-04T11:57:41;98085.03;;;26.53;26.76
54918;BME280;40818;50.562;7.454;2023-06-04T12:07:45;98082.19;;;26.27;27.63
54918;BME280;40818;50.562;7.454;2023-06-04T12:17:53;98083.97;;;25.39;27.33
54918;BME280;40818;50.562;7.454;2023-06-04T12:27:57;98073.75;;;24.92;26.00
54918;BME280;40818;50.562;7.454;2023-06-04T12:38:05;98076.41;;;24.92;27.42
54918;BME280;40818;50.562;7.454;2023-06-04T12:48:09;98078.63;;;23.97;29.27
54918;BME280;40818;50.562;7.454;2023-06-04T12:58:15;98071.56;;;23.26;27.01
54918;BME280;40818;50.562;7.454;2023-06-04T13:08:19;98071.44;;;23.51;28.74
54918;BME280;40818;50.562;7.454;2023-06-04T13:18:26;98078.50;;;22.79;30.15
54918;BME280;40818;50.562;7.454;2023-06-04T13:28:29;98076.03;;;23.34;29.10
54918;BME280;40818;50.562;7.454;2023-06-04T13:38:35;98065.00;;;22.58;27.45
54918;BME280;40818;50.562;7.454;2023-06-04T13:48:39;98053.72;;;22.72;29.93
54918;BME280;40818;50.562;7.454;2023-06-04T13:58:45;98053.00;;;22.87;29.06
54918;BME280;40818;50.562;7.454;2023-06-04T14:08:48;98043.00;;;23.45;28.52
54918;BME280;40818;50.562;7.454;2023-06-04T14:18:54;98039.69;;;23.66;28.48
54918;BME280;40818;50.562;7.454;2023-06-04T14:28:57;98025.75;;;23.26;28.19
54918;BME280;40818;50.562;7.454;2023-06-04T14:39:04;98032.78;;;22.54;28.01
54918;BME280;40818;50.562;7.454;2023-06-04T14:49:08;98024.28;;;22.67;26.52
54918;BME280;40818;50.562;7.454;2023-06-04T14:59:14;98018.41;;;22.24;28.33
54918;BME280;40818;50.562;7.454;2023-06-04T15:09:18;98002.69;;;22.47;27.80
54918;BME280;40818;50.562;7.454;2023-06-04T15:19:24;97990.56;;;23.00;29.39
54918;BME280;40818;50.562;7.454;2023-06-04T15:29:27;98000.25;;;22.12;28.64
54918;BME280;40818;50.562;7.454;2023-06-04T15:39:34;97992.69;;;21.76;29.42
54918;BME280;40818;50.562;7.454;2023-06-04T15:49:38;97985.06;;;22.14;29.54
54918;BME280;40818;50.562;7.454;2023-06-04T15:59:44;97987.03;;;22.21;29.67
54918;BME280;40818;50.562;7.454;2023-06-04T16:09:48;97986.59;;;21.92;29.24
54918;BME280;40818;50.562;7.454;2023-06-04T16:19:54;97974.38;;;21.75;28.76
54918;BME280;40818;50.562;7.454;2023-06-04T16:29:57;97967.06;;;22.10;29.05
54918;BME280;40818;50.562;7.454;2023-06-04T16:40:04;97970.41;;;21.54;29.91
54918;BME280;40818;50.562;7.454;2023-06-04T16:50:08;97971.53;;;21.35;28.42
54918;BME280;40818;50.562;7.454;2023-06-04T17:00:15;97969.34;;;21.22;29.12
54918;BME280;40818;50.562;7.454;2023-06-04T17:10:21;97960.25;;;21.17;30.43
54918;BME280;40818;50.562;7.454;2023-06-04T17:20:28;97961.22;;;20.99;30.54
54918;BME280;40818;50.562;7.454;2023-06-04T17:30:34;97967.06;;;20.76;30.04
54918;BME280;40818;50.562;7.454;2023-06-04T17:40:41;97965.91;;;20.36;31.67
54918;BME280;40818;50.562;7.454;2023-06-04T17:50:45;97961.84;;;20.16;32.41
54918;BME280;40818;50.562;7.454;2023-06-04T18:00:51;97966.31;;;19.97;32.25
54918;BME280;40818;50.562;7.454;2023-06-04T18:10:54;97967.97;;;19.98;32.49
54918;BME280;40818;50.562;7.454;2023-06-04T18:21:01;97967.75;;;19.73;32.97
54918;BME280;40818;50.562;7.454;2023-06-04T18:31:06;97972.38;;;19.35;33.87
54918;BME280;40818;50.562;7.454;2023-06-04T18:41:12;97980.19;;;19.09;34.62
54918;BME280;40818;50.562;7.454;2023-06-04T18:51:15;97988.72;;;18.93;35.04
54918;BME280;40818;50.562;7.454;2023-06-04T19:01:25;97992.50;;;18.81;35.55
54918;BME280;40818;50.562;7.454;2023-06-04T19:11:29;97993.94;;;18.37;37.16
54918;BME280;40818;50.562;7.454;2023-06-04T19:21:36;98009.50;;;17.91;37.90
54918;BME280;40818;50.562;7.454;2023-06-04T19:31:40;98019.72;;;17.55;37.91
54918;BME280;40818;50.562;7.454;2023-06-04T19:41:49;98019.56;;;17.37;37.55
54918;BME280;40818;50.562;7.454;2023-06-04T19:51:53;98014.28;;;17.08;37.84
54918;BME280;40818;50.562;7.454;2023-06-04T20:01:59;98029.03;;;16.99;38.09
54918;BME280;40818;50.562;7.454;2023-06-04T20:12:02;98036.72;;;16.91;38.07
54918;BME280;40818;50.562;7.454;2023-06-04T20:22:09;98043.16;;;16.87;38.04
54918;BME280;40818;50.562;7.454;2023-06-04T20:32:12;98059.03;;;16.85;37.65
54918;BME280;40818;50.562;7.454;2023-06-04T20:42:58;98068.09;;;16.71;37.86
54918;BME280;40818;50.562;7.454;2023-06-04T20:53:02;98075.78;;;16.63;38.16
54918;BME280;40818;50.562;7.454;2023-06-04T21:03:08;98080.06;;;16.43;38.98
54918;BME280;40818;50.562;7.454;2023-06-04T21:13:11;98087.31;;;16.30;39.62
54918;BME280;40818;50.562;7.454;2023-06-04T21:23:18;98088.19;;;16.19;40.79
54918;BME280;40818;50.562;7.454;2023-06-04T21:33:21;98090.34;;;15.93;41.53
54918;BME280;40818;50.562;7.454;2023-06-04T21:43:27;98093.94;;;15.80;41.91
54918;BME280;40818;50.562;7.454;2023-06-04T21:53:31;98101.22;;;15.65;43.07
54918;BME280;40818;50.562;7.454;2023-06-04T22:03:40;98102.19;;;15.53;43.38
54918;BME280;40818;50.562;7.454;2023-06-04T22:13:43;98105.59;;;15.32;44.49
54918;BME280;40818;50.562;7.454;2023-06-04T22:23:49;98104.16;;;15.06;46.01
54918;BME280;40818;50.562;7.454;2023-06-04T22:33:52;98110.13;;;14.85;46.78
54918;BME280;40818;50.562;7.454;2023-06-04T22:43:58;98109.75;;;14.67;47.60
54918;BME280;40818;50.562;7.454;2023-06-04T22:54:02;98110.41;;;14.58;48.40
54918;BME280;40818;50.562;7.454;2023-06-04T23:04:08;98094.59;;;14.48;48.84
54918;BME280;40818;50.562;7.454;2023-06-04T23:14:11;98098.13;;;14.24;49.49
54918;BME280;40818;50.562;7.454;2023-06-04T23:24:17;98094.47;;;14.03;50.56
54918;BME280;40818;50.562;7.454;2023-06-04T23:34:21;98098.22;;;13.87;51.40
54918;BME280;40818;50.562;7.454;2023-06-04T23:44:27;98093.69;;;13.78;51.65
54918;BME280;40818;50.562;7.454;2023-06-04T23:54:30;98086.94;;;13.62;52.11
